Pagrindinis puslapis
METAR-TAF:

METAR-TAF

Oro uostai :

Nagasakis, Japonija

platuma: 32-55N, ilguma: 129-55E, Aukštis: 2 m

Dabartinis oras

Ataskaita buvo paskelbta 54 minutes, ne 12:00 UTC
Vėjas 3 kt iš Rytų/Pietryčių
Temperatūra 8°C
Drėgmė 76%
Slėgis 1024 hPa
Matomumas 10 km arba daugiau
Mažai debesys ne aukštis 4500 ft
Su prošvaistėmis

METAR: RJFU 131200Z 12003KT 9999 FEW045 BKN/// 08/04 Q1024

Laikas: 21:54 (12:54 UTC)

Prognozė

Ataskaita buvo paskelbta 1 valandą ir 46 minutes, ne 11:08 UTC
Prognozė galioja nuo 13 metu 12 UTC su 14 metu 18 UTC
Vėjas 5 kt iš Pietryčių
Matomumas 10 km arba daugiau
Mažai debesys ne aukštis 3000 ft
Su prošvaistėmis ne aukštis 4000 ft
Tapsmas
nuo 14 metu 00 UTC su 14 metu 03 UTC
Vėjas 12 kt iš Šiaurės/Šiaurės Vakarų
Tapsmas
nuo 14 metu 12 UTC su 14 metu 15 UTC
Vėjas 7 kt iš Šiaurės Rytų
Tapsmas
nuo 14 metu 15 UTC su 14 metu 18 UTC
Vėjas 5 kt iš Pietryčių

TAF: RJFU 131108Z 1312/1418 13005KT 9999 FEW030 BKN040 BECMG 1400/1403 34012KT BECMG 1412/1415 04007KT BECMG 1415/1418 13005KT

Orai ataskaitas ir orų prognozės (METAR, TAF).

turimą stotys yra geltonos ir raudonos taškus žemėlapyje.

Perkelti pele per norėdami pamatyti stoties vardą.

Tada spustelėkite, norėdami matyti oro stebėjimo ir prognozės.

Norėdami pakeisti žemėlapį: spustelėkite ant žalios mygtukų su juodo kryžiaus žemyn,; žalią mygtuką su brūkšneliu, jei norite nutolinti; arba žalių rodyklių gretimoms žemėlapius.


METAR-TAF: